createdAt,value
2016-11-27T00:00:36.071Z,23
2016-11-27T00:01:49.600Z,22.94
2016-11-27T00:03:03.286Z,23
2016-11-27T00:04:16.417Z,22.98
2016-11-27T00:05:29.459Z,23.07
2016-11-27T00:06:43.361Z,23
2016-11-27T00:07:56.927Z,22.98
2016-11-27T00:09:10.557Z,22.98
2016-11-27T00:10:24.195Z,22.98
2016-11-27T00:11:37.289Z,22.95
2016-11-27T00:12:50.901Z,23.04
2016-11-27T00:14:04.568Z,22.94
2016-11-27T00:15:18.167Z,22.97
2016-11-27T00:17:02.995Z,22.94
2016-11-27T00:18:16.616Z,22.95
2016-11-27T00:19:30.256Z,22.95
2016-11-27T00:20:42.770Z,22.98
2016-11-27T00:21:55.863Z,22.88
2016-11-27T00:23:09.198Z,22.94
2016-11-27T00:24:22.788Z,23
2016-11-27T00:25:36.437Z,22.97
2016-11-27T00:26:49.535Z,23.01
2016-11-27T00:28:02.042Z,23
2016-11-27T00:29:15.447Z,22.95
2016-11-27T00:30:28.740Z,22.97
2016-11-27T00:31:42.301Z,22.94
2016-11-27T00:32:55.454Z,22.92
2016-11-27T00:34:08.682Z,22.88
2016-11-27T00:35:21.823Z,22.91
2016-11-27T00:36:35.431Z,22.82
2016-11-27T00:37:48.505Z,22.75
2016-11-27T00:39:02.107Z,22.73
2016-11-27T00:40:15.684Z,22.64
2016-11-27T00:41:28.223Z,22.62
2016-11-27T00:42:41.830Z,22.67
2016-11-27T00:43:55.387Z,22.73
2016-11-27T00:45:09.262Z,22.75
2016-11-27T00:46:22.931Z,22.75
2016-11-27T00:47:36.515Z,22.73
2016-11-27T00:48:49.586Z,22.77
2016-11-27T00:50:03.186Z,22.82
2016-11-27T00:51:16.746Z,22.79
2016-11-27T00:52:30.104Z,22.86
2016-11-27T00:53:43.765Z,22.77
2016-11-27T00:54:56.611Z,22.65
2016-11-27T00:56:09.838Z,22.67
2016-11-27T00:57:22.876Z,22.68
2016-11-27T00:58:36.187Z,22.62
2016-11-27T00:59:49.787Z,22.62
2016-11-27T01:01:03.042Z,22.64
2016-11-27T01:02:16.635Z,22.7
2016-11-27T01:03:29.937Z,22.54
2016-11-27T01:04:43.560Z,22.61
2016-11-27T01:05:57.208Z,22.67
2016-11-27T01:07:10.275Z,22.73
2016-11-27T01:08:23.915Z,22.68
2016-11-27T01:09:37.554Z,22.76
2016-11-27T01:10:51.137Z,22.75
2016-11-27T01:12:04.707Z,22.76
2016-11-27T01:13:18.328Z,22.73
2016-11-27T01:14:30.547Z,22.72
2016-11-27T01:15:44.179Z,22.73
2016-11-27T01:16:58.192Z,22.7
2016-11-27T01:18:11.848Z,22.73
2016-11-27T01:19:24.932Z,22.67
2016-11-27T01:20:38.041Z,22.61
2016-11-27T01:21:51.141Z,22.62
2016-11-27T01:23:04.729Z,22.64
2016-11-27T01:24:18.014Z,22.6
2016-11-27T01:25:31.082Z,22.67
2016-11-27T01:26:44.691Z,22.61
2016-11-27T01:27:58.289Z,22.51
2016-11-27T01:29:43.008Z,22.45
2016-11-27T01:30:56.037Z,22.42
2016-11-27T01:32:09.671Z,22.36
2016-11-27T01:33:23.002Z,22.35
2016-11-27T01:34:36.233Z,22.43
2016-11-27T01:35:49.300Z,22.43
2016-11-27T01:37:03.075Z,22.49
2016-11-27T01:38:16.726Z,22.46
2016-11-27T01:39:29.926Z,22.42
2016-11-27T01:40:43.564Z,22.35
2016-11-27T01:41:56.609Z,22.37
2016-11-27T01:43:10.541Z,22.36
2016-11-27T01:44:23.581Z,22.39
2016-11-27T01:45:37.411Z,22.4
2016-11-27T01:46:50.961Z,22.46
2016-11-27T01:48:04.024Z,22.43
2016-11-27T01:49:17.692Z,22.43
2016-11-27T01:50:31.322Z,22.49
2016-11-27T01:51:44.618Z,22.52
2016-11-27T01:52:58.235Z,22.51
2016-11-27T01:54:11.283Z,22.65
2016-11-27T01:55:24.876Z,22.62
2016-11-27T01:56:37.935Z,22.61
2016-11-27T01:57:50.994Z,22.6
2016-11-27T01:59:04.634Z,22.58
2016-11-27T02:00:18.309Z,22.57
2016-11-27T02:01:31.981Z,22.54
2016-11-27T02:02:45.074Z,22.57
2016-11-27T02:03:58.672Z,22.55
2016-11-27T02:05:12.278Z,22.51
2016-11-27T02:06:25.354Z,22.49
2016-11-27T02:07:39.290Z,22.49
2016-11-27T02:08:52.589Z,22.52
2016-11-27T02:10:37.379Z,22.33
2016-11-27T02:11:50.709Z,22.39
2016-11-27T02:13:04.274Z,22.45
2016-11-27T02:14:17.655Z,22.42
2016-11-27T02:15:31.314Z,22.4
2016-11-27T02:16:45.027Z,22.4
2016-11-27T02:17:58.294Z,22.42
2016-11-27T02:19:11.898Z,22.4
2016-11-27T02:20:25.522Z,22.51
2016-11-27T02:21:38.744Z,22.49
2016-11-27T02:22:52.332Z,22.45
2016-11-27T02:24:05.430Z,22.47
2016-11-27T02:25:17.963Z,22.47
2016-11-27T02:26:31.501Z,22.51
2016-11-27T02:27:45.100Z,22.52
2016-11-27T02:28:58.664Z,22.43
2016-11-27T02:30:12.334Z,22.45
2016-11-27T02:31:25.924Z,22.42
2016-11-27T02:32:39.641Z,22.4
2016-11-27T02:33:53.260Z,22.37
2016-11-27T02:35:06.813Z,22.43
2016-11-27T02:36:20.403Z,22.57
2016-11-27T02:37:33.059Z,22.55
2016-11-27T02:38:46.122Z,22.55
2016-11-27T02:40:00.001Z,22.55
2016-11-27T02:41:13.571Z,22.54
2016-11-27T02:42:27.163Z,22.54
2016-11-27T02:43:40.752Z,22.49
2016-11-27T02:44:54.116Z,22.49
2016-11-27T02:46:07.751Z,22.51
2016-11-27T02:47:21.327Z,22.47
2016-11-27T02:48:35.021Z,22.35
2016-11-27T02:49:48.596Z,22.39
2016-11-27T02:51:02.191Z,22.35
2016-11-27T02:52:15.331Z,22.25
2016-11-27T02:53:28.903Z,22.25
2016-11-27T02:54:42.229Z,22.33
2016-11-27T02:55:55.058Z,22.4
2016-11-27T02:57:08.668Z,22.39
2016-11-27T02:58:21.753Z,22.45
2016-11-27T02:59:34.767Z,22.43
2016-11-27T03:00:47.862Z,22.42
2016-11-27T03:02:01.459Z,22.35
2016-11-27T03:03:14.823Z,22.33
2016-11-27T03:04:28.429Z,22.15
2016-11-27T03:05:41.515Z,22.17
2016-11-27T03:06:55.125Z,22.24
2016-11-27T03:08:08.213Z,22.28
2016-11-27T03:09:21.731Z,22.22
2016-11-27T03:10:35.313Z,22.25
2016-11-27T03:11:48.391Z,22.15
2016-11-27T03:13:01.951Z,22.21
2016-11-27T03:14:15.595Z,22.3
2016-11-27T03:15:28.609Z,22.28
2016-11-27T03:16:41.116Z,22.24
2016-11-27T03:17:54.785Z,22.21
2016-11-27T03:19:08.378Z,22.17
2016-11-27T03:20:22.028Z,22.25
2016-11-27T03:21:35.633Z,22.18
2016-11-27T03:22:48.684Z,22.25
2016-11-27T03:24:02.276Z,22.21
2016-11-27T03:25:15.945Z,22.24
2016-11-27T03:26:43.505Z,22.3
2016-11-27T03:27:57.115Z,22.27
2016-11-27T03:29:10.468Z,22.4
2016-11-27T03:30:23.533Z,22.31
2016-11-27T03:31:37.527Z,22.33
2016-11-27T03:32:50.535Z,22.45
2016-11-27T03:34:03.579Z,22.42
2016-11-27T03:35:17.163Z,22.43
2016-11-27T03:36:30.807Z,22.45
2016-11-27T03:37:44.379Z,22.37
2016-11-27T03:38:58.011Z,22.46
2016-11-27T03:40:11.628Z,22.33
2016-11-27T03:41:24.754Z,22.37
2016-11-27T03:42:38.330Z,22.37
2016-11-27T03:43:51.394Z,22.24
2016-11-27T03:45:04.533Z,22.14
2016-11-27T03:46:18.156Z,22.1
2016-11-27T03:47:30.683Z,22.24
2016-11-27T03:48:44.354Z,22.27
2016-11-27T03:49:58.020Z,22.22
2016-11-27T03:51:11.159Z,22.22
2016-11-27T03:52:24.860Z,22.36
2016-11-27T03:53:38.509Z,22.3
2016-11-27T03:54:52.116Z,22.39
2016-11-27T03:56:04.637Z,22.36
2016-11-27T03:57:18.224Z,22.42
2016-11-27T03:58:31.828Z,22.31
2016-11-27T03:59:45.409Z,22.31
2016-11-27T04:00:59.031Z,22.36
2016-11-27T04:02:12.719Z,22.35
2016-11-27T04:03:25.752Z,22.22
2016-11-27T04:04:39.601Z,22.21
2016-11-27T04:06:24.346Z,22.3
2016-11-27T04:07:37.426Z,22.36
2016-11-27T04:08:51.078Z,22.3
2016-11-27T04:10:04.266Z,22.24
2016-11-27T04:11:17.035Z,22.22
2016-11-27T04:12:30.666Z,22.22
2016-11-27T04:13:44.260Z,22.24
2016-11-27T04:14:57.397Z,22.21
2016-11-27T04:16:10.722Z,22.27
2016-11-27T04:17:23.760Z,22.1
2016-11-27T04:18:37.029Z,22.14
2016-11-27T04:19:50.046Z,22.14
2016-11-27T04:21:03.262Z,22.17
2016-11-27T04:22:16.844Z,22.18
2016-11-27T04:23:30.419Z,22.1
2016-11-27T04:24:43.497Z,22.06
2016-11-27T04:25:57.945Z,21.99
2016-11-27T04:27:11.589Z,22.06
2016-11-27T04:28:25.157Z,22.12
2016-11-27T04:29:38.787Z,22.14
2016-11-27T04:30:52.359Z,22.15
2016-11-27T04:32:06.373Z,22.12
2016-11-27T04:33:19.941Z,22.1
2016-11-27T04:34:33.235Z,22.24
2016-11-27T04:35:46.350Z,22.17
2016-11-27T04:37:00.404Z,22.02
2016-11-27T04:38:13.485Z,21.9
2016-11-27T04:39:26.464Z,21.88
2016-11-27T04:40:40.091Z,21.88
2016-11-27T04:41:53.698Z,21.83
2016-11-27T04:43:07.613Z,21.83
2016-11-27T04:44:21.182Z,21.74
2016-11-27T04:47:01.238Z,21.72
2016-11-27T04:48:14.834Z,21.75
2016-11-27T04:49:27.862Z,21.82
2016-11-27T04:50:41.506Z,21.8
2016-11-27T04:51:54.534Z,21.82
2016-11-27T04:53:08.091Z,21.84
2016-11-27T04:54:21.683Z,21.9
2016-11-27T04:55:35.293Z,21.83
2016-11-27T04:56:48.393Z,21.74
2016-11-27T04:58:01.988Z,21.96
2016-11-27T04:59:15.622Z,21.86
2016-11-27T05:00:29.201Z,21.9
2016-11-27T05:01:42.322Z,21.9
2016-11-27T05:02:55.899Z,21.92
2016-11-27T05:04:09.421Z,22.02
2016-11-27T05:05:22.041Z,21.9
2016-11-27T05:06:35.616Z,21.91
2016-11-27T05:07:48.710Z,21.84
2016-11-27T05:09:01.792Z,21.83
2016-11-27T05:10:14.909Z,21.86
2016-11-27T05:11:27.963Z,21.79
2016-11-27T05:12:41.528Z,21.83
2016-11-27T05:13:55.119Z,21.77
2016-11-27T05:15:08.670Z,21.74
2016-11-27T05:16:22.193Z,21.83
2016-11-27T05:17:35.791Z,21.72
2016-11-27T05:18:49.369Z,21.69
2016-11-27T05:20:02.470Z,21.72
2016-11-27T05:21:15.532Z,21.79
2016-11-27T05:22:28.544Z,21.75
2016-11-27T05:23:42.106Z,21.79
2016-11-27T05:24:55.723Z,21.71
2016-11-27T05:26:09.373Z,21.68
2016-11-27T05:27:22.434Z,21.64
2016-11-27T05:28:36.405Z,21.61
2016-11-27T05:29:49.440Z,21.58
2016-11-27T05:31:03.254Z,21.54
2016-11-27T05:32:16.860Z,21.59
2016-11-27T05:33:30.216Z,21.61
2016-11-27T05:34:43.837Z,21.56
2016-11-27T05:35:56.834Z,21.54
2016-11-27T05:37:10.689Z,21.58
2016-11-27T05:38:24.234Z,21.67
2016-11-27T05:39:37.284Z,21.61
2016-11-27T05:40:50.936Z,21.58
2016-11-27T05:42:04.535Z,21.56
2016-11-27T05:43:18.109Z,21.65
2016-11-27T05:44:31.740Z,21.69
2016-11-27T05:45:45.271Z,21.72
2016-11-27T05:46:58.334Z,21.67
2016-11-27T05:48:12.003Z,21.71
2016-11-27T05:49:25.057Z,21.61
2016-11-27T05:50:38.774Z,21.65
2016-11-27T05:51:51.596Z,21.69
2016-11-27T05:53:05.154Z,21.68
2016-11-27T05:54:18.186Z,21.64
2016-11-27T05:55:30.685Z,21.59
2016-11-27T05:56:44.333Z,21.58
2016-11-27T05:57:57.962Z,21.64
2016-11-27T05:59:11.052Z,21.64
2016-11-27T06:00:24.699Z,21.64
2016-11-27T06:01:38.246Z,21.62
2016-11-27T06:02:51.848Z,21.69
2016-11-27T06:04:05.499Z,21.69
2016-11-27T06:05:18.539Z,21.61
2016-11-27T06:06:32.175Z,21.61
2016-11-27T06:07:45.275Z,21.53
2016-11-27T06:08:58.884Z,21.49
2016-11-27T06:10:12.063Z,21.42
2016-11-27T06:11:25.626Z,21.4
2016-11-27T06:12:38.659Z,21.49
2016-11-27T06:13:52.319Z,21.35
2016-11-27T06:15:05.823Z,21.46
2016-11-27T06:16:19.462Z,21.43
2016-11-27T06:17:33.304Z,21.52
2016-11-27T06:19:17.504Z,21.59
2016-11-27T06:20:30.528Z,21.53
2016-11-27T06:21:44.195Z,21.46
2016-11-27T06:22:57.827Z,21.5
2016-11-27T06:24:11.491Z,21.53
2016-11-27T06:25:25.102Z,21.61
2016-11-27T06:26:38.728Z,21.64
2016-11-27T06:27:51.739Z,21.58
2016-11-27T06:29:04.837Z,21.58
2016-11-27T06:30:18.423Z,21.71
2016-11-27T06:31:31.996Z,21.67
2016-11-27T06:32:44.988Z,21.72
2016-11-27T06:33:58.043Z,21.67
2016-11-27T06:35:11.193Z,21.59
2016-11-27T06:36:23.731Z,21.56
2016-11-27T06:37:36.322Z,21.52
2016-11-27T06:38:49.364Z,21.47
2016-11-27T06:40:03.377Z,21.47
2016-11-27T06:41:17.047Z,21.46
2016-11-27T06:42:30.618Z,21.43
2016-11-27T06:43:44.763Z,21.53
2016-11-27T06:44:58.388Z,21.4
2016-11-27T06:46:11.515Z,21.34
2016-11-27T06:47:24.308Z,21.44
2016-11-27T06:48:37.926Z,21.42
2016-11-27T06:49:51.575Z,21.46
2016-11-27T06:51:04.653Z,21.4
2016-11-27T06:52:18.278Z,21.49
2016-11-27T06:53:31.965Z,21.5
2016-11-27T06:54:45.017Z,21.53
2016-11-27T06:55:58.596Z,21.5
2016-11-27T06:57:11.616Z,21.47
2016-11-27T06:58:23.646Z,21.43
2016-11-27T06:59:37.588Z,21.44
2016-11-27T07:00:50.618Z,21.4
2016-11-27T07:02:04.298Z,21.47
2016-11-27T07:03:17.871Z,21.46
2016-11-27T07:04:31.544Z,21.47
2016-11-27T07:06:16.233Z,21.38
2016-11-27T07:07:30.297Z,21.44
2016-11-27T07:08:43.958Z,21.32
2016-11-27T07:09:57.558Z,21.27
2016-11-27T07:11:11.221Z,21.25
2016-11-27T07:12:24.264Z,21.29
2016-11-27T07:13:37.882Z,21.28
2016-11-27T07:14:51.490Z,21.34
2016-11-27T07:16:05.096Z,21.35
2016-11-27T07:17:17.601Z,21.35
2016-11-27T07:18:30.600Z,21.31
2016-11-27T07:19:43.660Z,21.32
2016-11-27T07:20:57.210Z,21.25
2016-11-27T07:22:10.255Z,21.29
2016-11-27T07:23:23.874Z,21.44
2016-11-27T07:24:37.640Z,21.28
2016-11-27T07:25:50.694Z,21.37
2016-11-27T07:27:03.761Z,21.31
2016-11-27T07:28:17.134Z,21.29
2016-11-27T07:29:30.859Z,21.21
2016-11-27T07:30:44.487Z,21.27
2016-11-27T07:31:57.059Z,21.21
2016-11-27T07:33:10.752Z,21.16
2016-11-27T07:34:54.890Z,21.1
2016-11-27T07:36:08.484Z,21.16
2016-11-27T07:37:21.579Z,21.03
2016-11-27T07:38:35.189Z,21.09
2016-11-27T07:39:47.762Z,21.07
2016-11-27T07:41:01.336Z,21.04
2016-11-27T07:42:14.363Z,21.06
2016-11-27T07:43:27.474Z,21.09
2016-11-27T07:44:40.727Z,21.09
2016-11-27T07:46:25.163Z,21.1
2016-11-27T07:47:38.776Z,21.16
2016-11-27T07:48:51.941Z,21.21
2016-11-27T07:50:05.553Z,21.24
2016-11-27T07:51:19.123Z,21.28
2016-11-27T07:52:32.214Z,21.32
2016-11-27T07:53:45.604Z,21.19
2016-11-27T07:54:59.181Z,21.28
2016-11-27T07:56:12.213Z,21.32
2016-11-27T07:57:25.538Z,21.24
2016-11-27T07:58:39.469Z,21.25
2016-11-27T07:59:52.841Z,21.29
2016-11-27T08:01:05.860Z,21.29
2016-11-27T08:02:19.417Z,21.31
2016-11-27T08:03:33.401Z,21.25
2016-11-27T08:04:46.474Z,21.13
2016-11-27T08:06:00.272Z,21.19
2016-11-27T08:07:13.839Z,21.28
2016-11-27T08:08:26.865Z,21.25
2016-11-27T08:09:40.217Z,21.28
2016-11-27T08:10:53.859Z,21.27
2016-11-27T08:12:07.661Z,21.27
2016-11-27T08:13:21.266Z,21.31
2016-11-27T08:14:34.341Z,21.29
2016-11-27T08:15:47.655Z,21.49
2016-11-27T08:17:01.266Z,21.49
2016-11-27T08:18:13.812Z,21.47
2016-11-27T08:19:26.633Z,21.53
2016-11-27T08:20:40.240Z,21.53
2016-11-27T08:21:53.332Z,21.52
2016-11-27T08:23:06.444Z,21.5
2016-11-27T08:24:19.503Z,21.52
2016-11-27T08:25:31.469Z,21.67
2016-11-27T08:26:45.143Z,21.61
2016-11-27T08:27:58.783Z,21.59
2016-11-27T08:29:12.398Z,21.67
2016-11-27T08:30:25.445Z,21.74
2016-11-27T08:31:38.702Z,21.69
2016-11-27T08:32:52.287Z,21.79
2016-11-27T08:34:05.343Z,21.67
2016-11-27T08:35:18.957Z,21.75
2016-11-27T08:36:32.607Z,21.86
2016-11-27T08:37:45.962Z,21.92
2016-11-27T08:38:59.020Z,21.9
2016-11-27T08:40:12.605Z,22.02
2016-11-27T08:41:26.231Z,22.18
2016-11-27T08:42:39.484Z,22.12
2016-11-27T08:43:53.084Z,22.17
2016-11-27T08:45:06.690Z,22.27
2016-11-27T08:46:20.264Z,22.24
2016-11-27T08:47:33.815Z,22.39
2016-11-27T08:48:47.401Z,22.36
2016-11-27T08:50:01.051Z,22.37
2016-11-27T08:51:14.155Z,22.37
2016-11-27T08:52:27.785Z,22.4
2016-11-27T08:53:41.449Z,22.25
2016-11-27T08:54:54.488Z,22.39
2016-11-27T08:56:07.558Z,22.37
2016-11-27T08:57:21.167Z,22.47
2016-11-27T08:58:33.733Z,22.36
2016-11-27T08:59:46.857Z,22.43
2016-11-27T09:01:00.361Z,22.37
2016-11-27T09:02:14.003Z,22.21
2016-11-27T09:03:27.008Z,22.28
2016-11-27T09:04:40.742Z,22.12
2016-11-27T09:05:53.838Z,22.21
2016-11-27T09:07:07.744Z,22.28
2016-11-27T09:08:21.404Z,22.36
2016-11-27T09:09:35.053Z,22.39
2016-11-27T09:10:48.132Z,22.35
2016-11-27T09:12:01.720Z,22.45
2016-11-27T09:13:15.320Z,22.46
2016-11-27T09:14:28.364Z,22.4
2016-11-27T09:15:41.970Z,22.47
2016-11-27T09:16:55.341Z,22.54
2016-11-27T09:18:08.384Z,22.51
2016-11-27T09:19:20.412Z,22.47
2016-11-27T09:20:34.008Z,22.46
2016-11-27T09:21:47.043Z,22.54
2016-11-27T09:23:00.684Z,22.49
2016-11-27T09:24:14.350Z,22.51
2016-11-27T09:25:27.971Z,22.55
2016-11-27T09:26:41.599Z,22.58
2016-11-27T09:27:55.013Z,22.54
2016-11-27T09:29:08.133Z,22.42
2016-11-27T09:30:21.155Z,22.43
2016-11-27T09:31:34.768Z,22.54
2016-11-27T09:32:47.872Z,22.6
2016-11-27T09:34:01.494Z,22.62
2016-11-27T09:35:14.082Z,22.54
2016-11-27T09:36:27.735Z,22.6
2016-11-27T09:37:40.834Z,22.61
2016-11-27T09:38:54.441Z,22.58
2016-11-27T09:40:07.202Z,22.72
2016-11-27T09:41:20.279Z,22.61
2016-11-27T09:42:33.458Z,22.62
2016-11-27T09:44:18.197Z,22.57
2016-11-27T09:45:31.283Z,22.58
2016-11-27T09:46:44.558Z,22.65
2016-11-27T09:47:57.703Z,22.55
2016-11-27T09:49:10.744Z,22.6
2016-11-27T09:50:24.360Z,22.6
2016-11-27T09:51:38.005Z,22.61
2016-11-27T09:52:51.580Z,22.61
2016-11-27T09:54:05.206Z,22.58
2016-11-27T09:55:18.808Z,22.54
2016-11-27T09:56:32.433Z,22.62
2016-11-27T09:57:46.005Z,22.61
2016-11-27T09:58:59.097Z,22.61
2016-11-27T10:00:12.730Z,22.7
2016-11-27T10:01:26.408Z,22.67
2016-11-27T10:02:40.009Z,22.55
2016-11-27T10:03:52.563Z,22.64
2016-11-27T10:05:06.544Z,22.67
2016-11-27T10:06:19.599Z,22.67
2016-11-27T10:07:32.668Z,22.65
2016-11-27T10:08:45.724Z,22.68
2016-11-27T10:09:58.817Z,22.61
2016-11-27T10:11:12.442Z,22.61
2016-11-27T10:12:24.943Z,22.54
2016-11-27T10:14:09.602Z,22.61
2016-11-27T10:15:23.184Z,22.7
2016-11-27T10:16:36.787Z,22.62
2016-11-27T10:17:50.401Z,22.65
2016-11-27T10:19:34.638Z,22.61
2016-11-27T10:20:48.277Z,22.64
2016-11-27T10:22:01.278Z,22.67
2016-11-27T10:23:14.916Z,22.75
2016-11-27T10:24:27.790Z,22.64
2016-11-27T10:25:41.401Z,22.58
2016-11-27T10:26:54.944Z,22.62
2016-11-27T10:28:08.047Z,22.77
2016-11-27T10:29:21.346Z,22.73
2016-11-27T10:30:34.932Z,22.68
2016-11-27T10:31:48.604Z,22.72
2016-11-27T10:33:02.193Z,22.76
2016-11-27T10:34:15.800Z,22.73
2016-11-27T10:35:29.446Z,22.75
2016-11-27T10:36:43.047Z,22.73
2016-11-27T10:37:56.452Z,22.82
2016-11-27T10:39:10.238Z,22.83
2016-11-27T10:40:23.857Z,22.77
2016-11-27T10:41:37.834Z,22.77
2016-11-27T10:42:51.196Z,22.8
2016-11-27T10:44:04.260Z,22.9
2016-11-27T10:45:17.834Z,22.86
2016-11-27T10:46:30.625Z,22.92
2016-11-27T10:47:43.949Z,23.01
2016-11-27T10:48:56.998Z,23.04
2016-11-27T10:50:10.915Z,23.09
2016-11-27T10:51:24.499Z,23.17
2016-11-27T10:52:37.606Z,23.1
2016-11-27T10:53:49.557Z,23.09
2016-11-27T10:55:32.639Z,23.16
2016-11-27T10:56:45.687Z,23.33
2016-11-27T10:57:59.245Z,23.36
2016-11-27T10:59:12.879Z,23.42
2016-11-27T11:00:26.480Z,23.5
2016-11-27T11:01:40.078Z,23.54
2016-11-27T11:02:53.412Z,23.53
2016-11-27T11:04:07.062Z,23.47
2016-11-27T11:05:20.691Z,23.46
2016-11-27T11:06:34.322Z,23.53
2016-11-27T11:07:47.939Z,23.57
2016-11-27T11:09:32.108Z,23.66
2016-11-27T11:10:45.723Z,23.72
2016-11-27T11:11:59.293Z,23.66
2016-11-27T11:13:12.899Z,23.7
2016-11-27T11:14:25.494Z,23.79
2016-11-27T11:15:39.022Z,23.87
2016-11-27T11:16:52.114Z,23.76
2016-11-27T11:18:05.764Z,23.83
2016-11-27T11:19:18.315Z,23.9
2016-11-27T11:20:31.916Z,23.87
2016-11-27T11:21:45.497Z,23.94
2016-11-27T11:22:59.184Z,23.85
2016-11-27T11:24:12.739Z,23.95
2016-11-27T11:25:25.840Z,24.03
2016-11-27T11:26:39.616Z,24.05
2016-11-27T11:27:53.275Z,24.09
2016-11-27T11:29:06.142Z,24.12
2016-11-27T11:30:19.503Z,24.09
2016-11-27T11:31:32.549Z,24.21
2016-11-27T11:32:45.038Z,24.21
2016-11-27T11:33:58.331Z,24.18
2016-11-27T11:35:11.931Z,24.22
2016-11-27T11:36:25.518Z,24.22
2016-11-27T11:37:39.136Z,24.3
2016-11-27T11:38:52.460Z,24.28
2016-11-27T11:40:05.579Z,24.4
2016-11-27T11:41:19.146Z,24.47
2016-11-27T11:43:03.535Z,24.52
2016-11-27T11:44:16.641Z,24.52
2016-11-27T11:45:30.446Z,24.57
2016-11-27T11:46:44.074Z,24.6
2016-11-27T11:47:56.617Z,24.6
2016-11-27T11:49:09.718Z,24.6
2016-11-27T11:50:23.383Z,24.64
2016-11-27T11:51:37.006Z,24.61
2016-11-27T11:52:50.670Z,24.65
2016-11-27T11:54:04.308Z,24.68
2016-11-27T11:55:17.936Z,24.73
2016-11-27T11:56:31.031Z,24.77
2016-11-27T11:57:43.531Z,24.68
2016-11-27T11:58:56.576Z,24.84
2016-11-27T12:00:09.188Z,24.88
2016-11-27T12:01:22.814Z,24.84
2016-11-27T12:02:36.082Z,24.8
2016-11-27T12:03:49.699Z,24.9
2016-11-27T12:05:03.565Z,24.91
2016-11-27T12:06:16.688Z,25.02
2016-11-27T12:07:30.343Z,25.13
2016-11-27T12:08:43.895Z,25.18
2016-11-27T12:09:57.503Z,25.14
2016-11-27T12:11:11.113Z,25.23
2016-11-27T12:12:24.377Z,25.27
2016-11-27T12:13:37.984Z,25.24
2016-11-27T12:14:51.609Z,25.35
2016-11-27T12:16:05.176Z,25.42
2016-11-27T12:17:18.785Z,25.43
2016-11-27T12:18:32.142Z,25.4
2016-11-27T12:19:45.724Z,25.52
2016-11-27T12:20:59.280Z,25.52
2016-11-27T12:22:12.974Z,25.64
2016-11-27T12:23:26.794Z,25.57
2016-11-27T12:24:40.812Z,25.67
2016-11-27T12:25:54.459Z,25.75
2016-11-27T12:27:08.030Z,25.83
2016-11-27T12:28:20.763Z,25.87
2016-11-27T12:29:33.880Z,25.88
2016-11-27T12:30:46.928Z,25.88
2016-11-27T12:32:00.555Z,25.99
2016-11-27T12:33:13.928Z,25.98
2016-11-27T12:34:27.020Z,26.07
2016-11-27T12:35:40.901Z,26.06
2016-11-27T12:36:54.501Z,26.06
2016-11-27T12:38:07.860Z,26.05
2016-11-27T12:39:21.499Z,26.13
2016-11-27T12:40:35.089Z,26.12
2016-11-27T12:41:47.342Z,26.2
2016-11-27T12:43:00.905Z,26.2
2016-11-27T12:44:14.579Z,26.25
2016-11-27T12:45:28.245Z,26.21
2016-11-27T12:46:40.836Z,26.33
2016-11-27T12:47:53.866Z,26.3
2016-11-27T12:49:07.875Z,26.3
2016-11-27T12:50:21.468Z,26.26
2016-11-27T12:51:34.569Z,26.33
2016-11-27T12:52:47.884Z,26.33
2016-11-27T12:54:00.696Z,26.44
2016-11-27T12:55:14.022Z,26.47
2016-11-27T12:56:27.083Z,26.51
2016-11-27T12:57:40.926Z,26.47
2016-11-27T12:58:54.597Z,26.51
2016-11-27T13:00:07.906Z,26.69
2016-11-27T13:01:21.060Z,26.69
2016-11-27T13:02:34.746Z,26.8
2016-11-27T13:03:47.826Z,26.76
2016-11-27T13:05:00.616Z,26.8
2016-11-27T13:06:13.698Z,26.85
2016-11-27T13:07:26.760Z,26.91
2016-11-27T13:08:39.835Z,26.94
2016-11-27T13:09:52.398Z,26.95
2016-11-27T13:11:05.986Z,26.95
2016-11-27T13:12:18.538Z,27.04
2016-11-27T13:13:32.182Z,27.1
2016-11-27T13:14:45.255Z,27
2016-11-27T13:15:58.920Z,27.22
2016-11-27T13:17:11.960Z,27.21
2016-11-27T13:18:23.972Z,27.28
2016-11-27T13:19:37.081Z,27.29
2016-11-27T13:20:50.150Z,27.34
2016-11-27T13:22:03.771Z,27.39
2016-11-27T13:23:17.323Z,27.5
2016-11-27T13:24:30.883Z,27.54
2016-11-27T13:25:44.471Z,27.49
2016-11-27T13:26:57.489Z,27.55
2016-11-27T13:28:11.036Z,27.62
2016-11-27T13:29:24.631Z,27.7
2016-11-27T13:30:38.147Z,27.72
2016-11-27T13:31:51.196Z,27.74
2016-11-27T13:33:03.574Z,27.74
2016-11-27T13:34:17.197Z,27.79
2016-11-27T13:35:30.821Z,27.82
2016-11-27T13:36:43.947Z,27.88
2016-11-27T13:37:57.245Z,27.9
2016-11-27T13:39:11.019Z,27.88
2016-11-27T13:40:55.285Z,28.06
2016-11-27T13:42:08.703Z,28.18
2016-11-27T13:43:21.880Z,28.22
2016-11-27T13:44:35.574Z,28.22
2016-11-27T13:46:20.276Z,28.3
2016-11-27T13:47:33.975Z,28.31
2016-11-27T13:48:47.619Z,28.36
2016-11-27T13:50:00.749Z,28.56
2016-11-27T13:51:14.393Z,28.67
2016-11-27T13:52:28.073Z,28.74
2016-11-27T13:53:41.585Z,28.83
2016-11-27T13:54:55.164Z,29.06
2016-11-27T13:56:08.786Z,29.15
2016-11-27T13:57:21.859Z,29.37
2016-11-27T13:58:34.966Z,29.46
2016-11-27T13:59:48.578Z,29.68
2016-11-27T14:01:02.154Z,29.8
2016-11-27T14:02:15.778Z,29.94
2016-11-27T14:03:29.099Z,30.13
2016-11-27T14:04:42.699Z,30.34
2016-11-27T14:05:56.013Z,30.55
2016-11-27T14:07:09.848Z,30.73
2016-11-27T14:08:22.933Z,30.86
2016-11-27T14:09:36.025Z,31.09
2016-11-27T14:10:49.088Z,31.17
2016-11-27T14:12:02.583Z,31.19
2016-11-27T14:13:15.672Z,31.28
2016-11-27T14:14:29.309Z,31.44
2016-11-27T14:15:42.918Z,31.28
2016-11-27T14:16:56.495Z,31.2
2016-11-27T14:18:10.176Z,31.16
2016-11-27T14:19:23.742Z,30.94
2016-11-27T14:20:36.347Z,30.51
2016-11-27T14:21:49.408Z,30.54
2016-11-27T14:23:03.067Z,30.69
2016-11-27T14:24:16.730Z,30.75
2016-11-27T14:25:30.629Z,30.86
2016-11-27T14:26:44.223Z,31.06
2016-11-27T14:27:56.832Z,31.32
2016-11-27T14:29:09.960Z,31.43
2016-11-27T14:30:23.636Z,31.29
2016-11-27T14:31:37.316Z,31.28
2016-11-27T14:32:50.906Z,31.21
2016-11-27T14:34:04.547Z,31.06
2016-11-27T14:35:18.162Z,30.94
2016-11-27T14:36:31.780Z,31.23
2016-11-27T14:37:45.335Z,31.21
2016-11-27T14:38:58.607Z,31.44
2016-11-27T14:41:56.368Z,32.35
2016-11-27T14:43:09.409Z,32.96
2016-11-27T14:44:22.949Z,33.44
2016-11-27T14:45:36.814Z,33.61
2016-11-27T14:46:49.892Z,33.59
2016-11-27T14:48:03.498Z,33.81
2016-11-27T14:49:17.193Z,34.3
2016-11-27T14:50:30.569Z,34.61
2016-11-27T14:51:43.666Z,34.81
2016-11-27T14:52:57.051Z,35.03
2016-11-27T14:54:10.989Z,34.77
2016-11-27T14:55:24.639Z,34.82
2016-11-27T14:56:38.319Z,35.18
2016-11-27T14:57:51.470Z,35.11
2016-11-27T14:59:05.112Z,35.77
2016-11-27T15:00:18.445Z,36.01
2016-11-27T15:01:31.563Z,35.99
2016-11-27T15:02:45.198Z,36.49
2016-11-27T15:03:58.801Z,36.93
2016-11-27T15:05:12.480Z,37.27
2016-11-27T15:06:26.114Z,37.31
2016-11-27T15:07:39.818Z,37.85
2016-11-27T15:08:52.934Z,37.63
2016-11-27T15:10:05.550Z,37.5
2016-11-27T15:11:19.162Z,37.05
2016-11-27T15:12:32.487Z,37.22
2016-11-27T15:13:45.620Z,37.17
2016-11-27T15:14:59.258Z,37.46
2016-11-27T15:16:12.405Z,37.78
2016-11-27T15:17:25.490Z,38.23
2016-11-27T15:18:39.144Z,38.07
2016-11-27T15:19:52.695Z,38.18
2016-11-27T15:21:06.738Z,38.16
2016-11-27T15:22:19.296Z,37.49
2016-11-27T15:23:32.885Z,37.32
2016-11-27T15:24:45.992Z,37.09
2016-11-27T15:25:59.045Z,35.96
2016-11-27T15:27:12.640Z,35.75
2016-11-27T15:28:26.257Z,35.85
2016-11-27T15:29:39.896Z,35.66
2016-11-27T15:30:53.007Z,35.6
2016-11-27T15:32:06.431Z,36.32
2016-11-27T15:33:19.538Z,36.39
2016-11-27T15:34:32.868Z,36.9
2016-11-27T15:35:45.705Z,37.5
2016-11-27T15:36:58.829Z,37.81
2016-11-27T15:38:11.183Z,37.91
2016-11-27T15:39:24.766Z,37.84
2016-11-27T15:40:38.332Z,37.64
2016-11-27T15:41:51.932Z,37.7
2016-11-27T15:43:05.573Z,37.78
2016-11-27T15:44:19.212Z,37.84
2016-11-27T15:45:32.340Z,37.15
2016-11-27T15:46:44.941Z,36.5
2016-11-27T15:47:57.752Z,36.5
2016-11-27T15:49:10.995Z,36.49
2016-11-27T15:50:23.758Z,36.49
2016-11-27T15:51:37.429Z,36.22
2016-11-27T15:52:51.020Z,36.03
2016-11-27T15:54:04.140Z,35.9
2016-11-27T15:55:17.868Z,36.05
2016-11-27T15:56:31.464Z,36.39
2016-11-27T15:57:44.601Z,36.29
2016-11-27T15:58:57.204Z,36.29
2016-11-27T16:00:11.106Z,36.44